Terminal Aerodrome Forecast
Issued by NWS Louisville, KY

Home | Current Version | Previous Version | Text Only | Print | Product List | Glossary On
Versions: 1 2 3 4 5 6 7 8 9 10 11 12 13 14 15 16
758
FTUS43 KLMK 211722
TAFSDF
TAF
KSDF 211722Z 2118/2224 19008KT P6SM OVC150
     FM220000 15004KT P6SM BKN050 OVC100
     FM220900 10006KT P6SM VCSH BKN015
     FM221200 07007KT 4SM SHRA BR BKN010=

USA.gov is the U.S. government's official web portal to all federal, state and local government web resources and services.